createdAt,value
2022-08-19T00:00:11.025Z,87.26
2022-08-19T00:01:11.375Z,87.16
2022-08-19T00:02:11.274Z,87.26
2022-08-19T00:03:11.005Z,87.16
2022-08-19T00:04:10.994Z,86.96
2022-08-19T00:05:10.985Z,86.76
2022-08-19T00:06:11.695Z,87.05
2022-08-19T00:07:11.713Z,87.05
2022-08-19T00:08:10.985Z,87.05
2022-08-19T00:09:10.935Z,86.96
2022-08-19T00:10:10.924Z,87.05
2022-08-19T00:11:18.574Z,87.05
2022-08-19T00:12:11.907Z,87.36
2022-08-19T00:13:11.644Z,87.46
2022-08-19T00:14:10.917Z,87.36
2022-08-19T00:15:12.258Z,87.36
2022-08-19T00:16:10.854Z,87.46
2022-08-19T00:17:11.075Z,87.46
2022-08-19T00:18:11.083Z,87.56
2022-08-19T00:19:10.804Z,87.46
2022-08-19T00:20:10.814Z,87.26
2022-08-19T00:21:10.794Z,87.16
2022-08-19T00:22:10.794Z,87.16
2022-08-19T00:23:10.785Z,87.26
2022-08-19T00:24:11.510Z,87.26
2022-08-19T00:25:10.786Z,87.26
2022-08-19T00:26:11.143Z,87.36
2022-08-19T00:27:26.144Z,87.56
2022-08-19T00:28:12.659Z,87.56
2022-08-19T00:29:11.155Z,87.56
2022-08-19T00:30:11.164Z,87.60
2022-08-19T00:31:10.697Z,87.81
2022-08-19T00:32:10.732Z,87.91
2022-08-19T00:33:11.286Z,88.01
2022-08-19T00:34:10.643Z,88.11
2022-08-19T00:35:10.677Z,88.21
2022-08-19T00:36:10.618Z,88.01
2022-08-19T00:37:10.594Z,88.11
2022-08-19T00:38:10.606Z,88.11
2022-08-19T00:39:10.576Z,88.01
2022-08-19T00:40:10.979Z,88.11
2022-08-19T00:41:10.548Z,88.11
2022-08-19T00:42:10.546Z,88.01
2022-08-19T00:43:10.936Z,88.21
2022-08-19T00:44:11.045Z,88.51
2022-08-19T00:45:11.166Z,88.62
2022-08-19T00:46:11.175Z,88.62
2022-08-19T00:47:11.206Z,88.72
2022-08-19T00:48:14.691Z,88.92
2022-08-19T00:49:10.474Z,89.02
2022-08-19T00:50:10.477Z,89.02
2022-08-19T00:51:10.425Z,88.82
2022-08-19T00:52:10.497Z,89.02
2022-08-19T00:53:11.137Z,89.12
2022-08-19T00:54:10.417Z,89.02
2022-08-19T00:55:10.378Z,89.12
2022-08-19T00:56:11.245Z,89.12
2022-08-19T00:57:11.146Z,89.12
2022-08-19T00:58:10.434Z,89.02
2022-08-19T00:59:10.326Z,89.02
2022-08-19T01:00:10.351Z,88.92
2022-08-19T01:01:10.329Z,89.02
2022-08-19T01:02:10.334Z,88.92
2022-08-19T01:03:10.296Z,88.82
2022-08-19T01:04:10.290Z,88.82
2022-08-19T01:05:11.148Z,88.92
2022-08-19T01:06:10.276Z,89.12
2022-08-19T01:07:15.093Z,89.12
2022-08-19T01:08:11.996Z,89.12
2022-08-19T01:09:10.236Z,89.12
2022-08-19T01:10:10.236Z,89.02
2022-08-19T01:11:10.206Z,88.92
2022-08-19T01:12:10.188Z,88.82
2022-08-19T01:13:10.895Z,88.72
2022-08-19T01:14:10.167Z,88.82
2022-08-19T01:15:10.156Z,88.72
2022-08-19T01:16:10.158Z,88.62
2022-08-19T01:17:10.576Z,88.62
2022-08-19T01:18:10.457Z,88.72
2022-08-19T01:19:10.257Z,88.82
2022-08-19T01:20:10.107Z,88.56
2022-08-19T01:21:10.166Z,88.66
2022-08-19T01:22:14.379Z,88.86
2022-08-19T01:23:11.047Z,88.76
2022-08-19T01:24:10.718Z,88.96
2022-08-19T01:25:15.015Z,88.96
2022-08-19T01:26:11.437Z,89.06
2022-08-19T01:27:10.900Z,89.17
2022-08-19T01:28:11.315Z,89.06
2022-08-19T01:29:10.967Z,89.17
2022-08-19T01:30:10.238Z,89.17
2022-08-19T01:31:09.958Z,89.37
2022-08-19T01:32:09.956Z,89.37
2022-08-19T01:33:10.928Z,89.57
2022-08-19T01:34:09.927Z,89.47
2022-08-19T01:35:09.908Z,89.37
2022-08-19T01:36:09.909Z,89.37
2022-08-19T01:37:09.887Z,89.37
2022-08-19T01:38:09.887Z,89.37
2022-08-19T01:39:09.988Z,89.47
2022-08-19T01:40:09.883Z,89.37
2022-08-19T01:41:11.051Z,89.37
2022-08-19T01:42:09.838Z,89.37
2022-08-19T01:43:09.809Z,89.47
2022-08-19T01:44:18.919Z,89.47
2022-08-19T01:45:10.781Z,89.37
2022-08-19T01:46:10.539Z,89.57
2022-08-19T01:47:09.788Z,89.57
2022-08-19T01:48:09.767Z,89.57
2022-08-19T01:49:09.745Z,89.57
2022-08-19T01:50:09.764Z,89.67
2022-08-19T01:51:09.715Z,89.92
2022-08-19T01:52:09.708Z,89.92
2022-08-19T01:53:09.698Z,89.41
2022-08-19T01:54:09.730Z,89.41
2022-08-19T01:55:09.667Z,89.51
2022-08-19T01:56:09.675Z,89.72
2022-08-19T01:57:09.800Z,89.72
2022-08-19T01:58:09.638Z,89.72
2022-08-19T01:59:09.618Z,89.61
2022-08-19T02:00:09.718Z,89.51
2022-08-19T02:01:09.641Z,89.61
2022-08-19T02:02:09.600Z,89.11
2022-08-19T02:03:09.576Z,88.70
2022-08-19T02:04:09.570Z,88.80
2022-08-19T02:05:11.387Z,89.01
2022-08-19T02:06:09.559Z,89.21
2022-08-19T02:07:09.529Z,89.11
2022-08-19T02:08:09.879Z,89.61
2022-08-19T02:09:09.987Z,89.92
2022-08-19T02:10:12.328Z,90.02
2022-08-19T02:11:10.448Z,90.12
2022-08-19T02:12:09.502Z,90.12
2022-08-19T02:13:09.457Z,90.12
2022-08-19T02:14:09.448Z,90.12
2022-08-19T02:15:09.438Z,90.02
2022-08-19T02:16:09.437Z,90.02
2022-08-19T02:17:09.399Z,90.02
2022-08-19T02:18:09.493Z,90.02
2022-08-19T02:19:09.389Z,90.02
2022-08-19T02:20:09.386Z,90.32
2022-08-19T02:21:09.358Z,90.22
2022-08-19T02:22:09.361Z,90.32
2022-08-19T02:23:13.857Z,90.32
2022-08-19T02:24:10.346Z,90.16
2022-08-19T02:25:09.309Z,89.86
2022-08-19T02:26:09.309Z,89.86
2022-08-19T02:27:09.288Z,89.65
2022-08-19T02:28:09.301Z,89.76
2022-08-19T02:29:09.398Z,89.86
2022-08-19T02:30:10.157Z,89.96
2022-08-19T02:31:09.259Z,89.96
2022-08-19T02:32:09.240Z,89.96
2022-08-19T02:33:09.221Z,90.06
2022-08-19T02:34:09.220Z,90.16
2022-08-19T02:35:12.214Z,90.36
2022-08-19T02:36:09.198Z,90.57
2022-08-19T02:37:09.178Z,90.67
2022-08-19T02:38:09.171Z,90.77
2022-08-19T02:39:09.149Z,90.88
2022-08-19T02:40:12.758Z,90.77
2022-08-19T02:41:09.159Z,90.88
2022-08-19T02:42:09.131Z,90.88
2022-08-19T02:43:09.110Z,90.88
2022-08-19T02:44:30.847Z,90.97
2022-08-19T02:45:10.080Z,91.32
2022-08-19T02:46:09.082Z,91.52
2022-08-19T02:47:09.060Z,91.52
2022-08-19T02:48:21.150Z,91.52
2022-08-19T02:49:10.043Z,91.42
2022-08-19T02:50:09.770Z,91.42
2022-08-19T02:51:09.009Z,91.52
2022-08-19T02:52:09.014Z,91.42
2022-08-19T02:53:08.999Z,91.22
2022-08-19T02:54:08.987Z,91.02
2022-08-19T02:55:08.977Z,91.02
2022-08-19T02:56:08.959Z,91.02
2022-08-19T02:57:08.939Z,90.92
2022-08-19T02:58:08.941Z,90.92
2022-08-19T02:59:08.921Z,90.92
2022-08-19T03:00:08.921Z,90.81
2022-08-19T03:01:08.947Z,90.92
2022-08-19T03:02:08.900Z,90.92
2022-08-19T03:03:08.871Z,91.02
2022-08-19T03:04:08.891Z,91.02
2022-08-19T03:05:08.851Z,91.52
2022-08-19T03:06:08.849Z,92.18
2022-08-19T03:07:11.246Z,92.28
2022-08-19T03:08:08.829Z,92.07
2022-08-19T03:09:08.801Z,91.97
2022-08-19T03:10:08.801Z,91.97
2022-08-19T03:11:09.192Z,92.07
2022-08-19T03:12:08.800Z,92.18
2022-08-19T03:13:08.760Z,92.28
2022-08-19T03:14:08.771Z,92.28
2022-08-19T03:15:08.740Z,92.28
2022-08-19T03:16:08.750Z,92.38
2022-08-19T03:17:08.912Z,92.38
2022-08-19T03:18:08.819Z,92.28
2022-08-19T03:19:08.703Z,92.48
2022-08-19T03:20:08.699Z,92.48
2022-08-19T03:21:12.357Z,92.48
2022-08-19T03:22:08.689Z,92.38
2022-08-19T03:23:08.642Z,92.38
2022-08-19T03:24:08.684Z,92.38
2022-08-19T03:25:08.791Z,92.18
2022-08-19T03:26:15.945Z,92.07
2022-08-19T03:27:09.610Z,92.07
2022-08-19T03:28:08.630Z,92.07
2022-08-19T03:29:08.719Z,92.07
2022-08-19T03:30:08.602Z,92.12
2022-08-19T03:31:13.555Z,92.22
2022-08-19T03:32:09.571Z,92.32
2022-08-19T03:33:09.539Z,92.63
2022-08-19T03:34:08.570Z,93.03
2022-08-19T03:35:08.510Z,93.13
2022-08-19T03:36:08.523Z,93.33
2022-08-19T03:37:08.502Z,93.24
2022-08-19T03:38:08.510Z,93.33
2022-08-19T03:39:08.469Z,93.33
2022-08-19T03:40:08.572Z,93.44
2022-08-19T03:41:09.451Z,93.44
2022-08-19T03:42:38.594Z,93.33
2022-08-19T03:43:09.431Z,93.13
2022-08-19T03:44:08.430Z,93.03
2022-08-19T03:45:09.402Z,92.93
2022-08-19T03:46:08.413Z,92.93
2022-08-19T03:47:08.380Z,92.83
2022-08-19T03:48:08.389Z,92.42
2022-08-19T03:49:08.363Z,92.52
2022-08-19T03:50:08.361Z,92.67
2022-08-19T03:51:08.421Z,92.77
2022-08-19T03:52:08.546Z,92.77
2022-08-19T03:53:08.320Z,92.77
2022-08-19T03:54:08.311Z,92.77
2022-08-19T03:55:08.290Z,92.87
2022-08-19T03:56:08.292Z,92.87
2022-08-19T03:57:08.269Z,92.67
2022-08-19T03:58:08.271Z,92.57
2022-08-19T03:59:08.253Z,92.57
2022-08-19T04:00:13.499Z,92.67
2022-08-19T04:01:08.291Z,92.57
2022-08-19T04:02:08.221Z,92.47
2022-08-19T04:03:08.200Z,92.47
2022-08-19T04:04:08.201Z,92.57
2022-08-19T04:05:08.191Z,92.57
2022-08-19T04:06:08.183Z,92.71
2022-08-19T04:07:08.620Z,92.82
2022-08-19T04:08:13.303Z,93.02
2022-08-19T04:09:09.191Z,93.12
2022-08-19T04:10:08.141Z,93.02
2022-08-19T04:11:08.114Z,93.02
2022-08-19T04:12:08.153Z,93.22
2022-08-19T04:13:08.093Z,93.32
2022-08-19T04:14:08.117Z,93.43
2022-08-19T04:15:08.071Z,93.43
2022-08-19T04:16:08.071Z,93.43
2022-08-19T04:17:08.062Z,93.43
2022-08-19T04:18:08.052Z,93.52
2022-08-19T04:19:08.031Z,93.63
2022-08-19T04:20:08.013Z,93.73
2022-08-19T04:21:08.014Z,93.83
2022-08-19T04:22:08.000Z,93.83
2022-08-19T04:23:07.991Z,93.83
2022-08-19T04:24:08.162Z,93.83
2022-08-19T04:25:07.968Z,93.83
2022-08-19T04:26:07.941Z,93.83
2022-08-19T04:27:08.951Z,93.93
2022-08-19T04:28:07.921Z,93.93
2022-08-19T04:29:12.156Z,94.13
2022-08-19T04:30:07.903Z,94.34
2022-08-19T04:31:07.940Z,94.24
2022-08-19T04:32:09.778Z,94.34
2022-08-19T04:33:07.931Z,94.34
2022-08-19T04:34:07.861Z,94.34
2022-08-19T04:35:17.473Z,94.34
2022-08-19T04:36:08.832Z,94.24
2022-08-19T04:37:07.843Z,94.24
2022-08-19T04:38:07.819Z,94.13
2022-08-19T04:39:07.823Z,94.04
2022-08-19T04:40:07.858Z,93.93
2022-08-19T04:41:07.814Z,93.83
2022-08-19T04:42:07.810Z,93.83
2022-08-19T04:43:07.773Z,93.73
2022-08-19T04:44:08.562Z,93.52
2022-08-19T04:45:09.362Z,93.43
2022-08-19T04:46:08.626Z,93.43
2022-08-19T04:47:11.216Z,93.43
2022-08-19T04:48:19.618Z,93.52
2022-08-19T04:49:10.472Z,93.52
2022-08-19T04:50:07.686Z,93.63
2022-08-19T04:51:07.694Z,93.73
2022-08-19T04:52:08.414Z,93.63
2022-08-19T04:53:08.463Z,93.52
2022-08-19T04:54:07.632Z,93.43
2022-08-19T04:55:08.478Z,93.22
2022-08-19T04:56:07.611Z,93.18
2022-08-19T04:57:08.043Z,93.07
2022-08-19T04:58:08.261Z,92.87
2022-08-19T04:59:07.618Z,92.57
2022-08-19T05:00:07.592Z,92.26
2022-08-19T05:01:07.622Z,92.26
2022-08-19T05:02:07.772Z,92.16
2022-08-19T05:03:07.924Z,92.06
2022-08-19T05:04:07.532Z,91.96
2022-08-19T05:05:07.911Z,91.91
2022-08-19T05:06:07.903Z,91.82
2022-08-19T05:07:08.010Z,91.71
2022-08-19T05:08:08.163Z,91.61
2022-08-19T05:09:08.216Z,91.51
2022-08-19T05:10:07.538Z,91.41
2022-08-19T05:11:07.643Z,91.16
2022-08-19T05:12:08.196Z,90.96
2022-08-19T05:13:08.192Z,90.66
2022-08-19T05:14:08.092Z,90.66
2022-08-19T05:15:07.442Z,90.66
2022-08-19T05:16:07.383Z,90.55
2022-08-19T05:17:26.585Z,90.35
2022-08-19T05:18:08.494Z,90.00
2022-08-19T05:19:08.131Z,89.80
2022-08-19T05:20:07.374Z,89.90
2022-08-19T05:21:07.361Z,89.90
2022-08-19T05:22:07.327Z,89.80
2022-08-19T05:23:09.587Z,89.80
2022-08-19T05:24:08.316Z,89.65
2022-08-19T05:25:13.072Z,89.35
2022-08-19T05:26:08.282Z,89.15
2022-08-19T05:27:07.336Z,89.04
2022-08-19T05:28:07.253Z,88.84
2022-08-19T05:29:07.272Z,88.70
2022-08-19T05:30:07.994Z,88.60
2022-08-19T05:31:07.285Z,88.40
2022-08-19T05:32:07.211Z,88.29
2022-08-19T05:33:07.812Z,87.99
2022-08-19T05:34:07.413Z,87.74
2022-08-19T05:35:08.203Z,87.24
2022-08-19T05:36:07.947Z,86.94
2022-08-19T05:37:07.934Z,86.83
2022-08-19T05:38:07.297Z,86.79
2022-08-19T05:39:07.161Z,86.69
2022-08-19T05:40:07.157Z,86.69
2022-08-19T05:41:07.134Z,86.49
2022-08-19T05:42:07.222Z,86.15
2022-08-19T05:43:07.910Z,86.05
2022-08-19T05:44:07.843Z,85.74
2022-08-19T05:45:07.096Z,85.30
2022-08-19T05:46:07.074Z,84.99
2022-08-19T05:47:08.064Z,84.69
2022-08-19T05:48:07.783Z,83.23
2022-08-19T05:49:07.113Z,83.33
2022-08-19T05:50:07.092Z,83.19
2022-08-19T05:51:07.754Z,83.19
2022-08-19T05:52:06.994Z,82.65
2022-08-19T05:53:07.003Z,82.45
2022-08-19T05:54:07.726Z,82.31
2022-08-19T05:55:07.794Z,81.70
2022-08-19T05:56:06.973Z,80.90
2022-08-19T05:57:06.973Z,80.45
2022-08-19T05:58:07.852Z,80.76
2022-08-19T05:59:07.754Z,80.65
2022-08-19T06:00:07.655Z,79.44
2022-08-19T06:01:07.850Z,79.91
2022-08-19T06:02:07.731Z,80.11
2022-08-19T06:03:12.679Z,80.11
2022-08-19T06:04:08.184Z,79.81
2022-08-19T06:05:07.695Z,79.50
2022-08-19T06:06:07.595Z,79.87
2022-08-19T06:07:12.748Z,79.87
2022-08-19T06:08:07.804Z,79.06
2022-08-19T06:09:06.873Z,79.67
2022-08-19T06:10:06.856Z,79.27
2022-08-19T06:11:07.485Z,79.77
2022-08-19T06:12:07.214Z,80.18
2022-08-19T06:13:07.712Z,80.07
2022-08-19T06:14:06.765Z,79.57
2022-08-19T06:15:07.500Z,79.63
2022-08-19T06:16:07.663Z,80.18
2022-08-19T06:17:07.669Z,80.38
2022-08-19T06:18:06.751Z,80.64
2022-08-19T06:19:06.693Z,80.13
2022-08-19T06:20:07.539Z,80.24
2022-08-19T06:21:06.703Z,80.13
2022-08-19T06:22:06.690Z,79.93
2022-08-19T06:23:07.361Z,80.33
2022-08-19T06:24:07.410Z,80.64
2022-08-19T06:25:07.568Z,80.70
2022-08-19T06:26:07.325Z,80.60
2022-08-19T06:27:07.372Z,80.70
2022-08-19T06:28:15.534Z,80.60
2022-08-19T06:29:07.594Z,80.40
2022-08-19T06:30:07.360Z,80.74
2022-08-19T06:31:06.565Z,80.80
2022-08-19T06:32:06.634Z,80.64
2022-08-19T06:33:07.337Z,80.44
2022-08-19T06:34:07.467Z,80.84
2022-08-19T06:35:07.374Z,80.33
2022-08-19T06:36:07.303Z,80.33
2022-08-19T06:37:06.507Z,80.90
2022-08-19T06:38:07.212Z,80.40
2022-08-19T06:39:07.246Z,79.69
2022-08-19T06:40:07.489Z,76.47
2022-08-19T06:41:07.634Z,77.08
2022-08-19T06:42:07.214Z,79.19
2022-08-19T06:43:09.341Z,80.50
2022-08-19T06:44:06.426Z,80.60
2022-08-19T06:45:09.204Z,80.26
2022-08-19T06:46:06.435Z,80.36
2022-08-19T06:47:09.625Z,80.36
2022-08-19T06:48:07.383Z,80.16
2022-08-19T06:49:07.312Z,80.26
2022-08-19T06:50:06.336Z,79.56
2022-08-19T06:51:08.599Z,79.76
2022-08-19T06:52:07.146Z,79.66
2022-08-19T06:53:07.061Z,79.32
2022-08-19T06:54:07.217Z,79.82
2022-08-19T06:55:08.024Z,79.92
2022-08-19T06:56:07.178Z,79.92
2022-08-19T06:57:06.277Z,79.32
2022-08-19T06:58:07.076Z,79.11
2022-08-19T06:59:06.247Z,78.71
2022-08-19T07:00:09.712Z,79.02
2022-08-19T07:01:09.237Z,78.81
2022-08-19T07:02:06.259Z,78.67
2022-08-19T07:03:08.714Z,77.17
2022-08-19T07:04:06.887Z,77.27
2022-08-19T07:05:06.712Z,78.88
2022-08-19T07:06:09.621Z,78.58
2022-08-19T07:07:12.522Z,77.67
2022-08-19T07:08:08.046Z,77.43
2022-08-19T07:09:06.927Z,78.64
2022-08-19T07:10:07.841Z,78.84
2022-08-19T07:11:09.232Z,78.54
2022-08-19T07:12:07.050Z,78.64
2022-08-19T07:13:06.117Z,78.50
2022-08-19T07:14:06.417Z,78.50
2022-08-19T07:15:06.865Z,78.10
2022-08-19T07:16:06.785Z,77.90
2022-08-19T07:17:06.788Z,73.94
2022-08-19T07:18:06.827Z,73.84
2022-08-19T07:19:12.972Z,76.25
2022-08-19T07:20:09.986Z,76.56
2022-08-19T07:21:06.056Z,76.42
2022-08-19T07:22:06.160Z,76.82
2022-08-19T07:23:07.146Z,76.82
2022-08-19T07:24:07.216Z,75.98
2022-08-19T07:25:05.964Z,76.28
2022-08-19T07:26:06.833Z,75.45
2022-08-19T07:27:06.761Z,73.84
2022-08-19T07:28:07.676Z,75.14
2022-08-19T07:29:06.918Z,75.31
2022-08-19T07:30:06.708Z,75.10
2022-08-19T07:31:06.605Z,74.90
2022-08-19T07:32:06.767Z,73.67
2022-08-19T07:33:07.689Z,74.47
2022-08-19T07:34:05.870Z,73.47
2022-08-19T07:35:05.916Z,73.03
2022-08-19T07:36:06.637Z,73.33
2022-08-19T07:37:05.848Z,72.73
2022-08-19T07:38:05.811Z,72.83
2022-08-19T07:39:06.609Z,72.89
2022-08-19T07:40:06.547Z,72.89
2022-08-19T07:41:06.530Z,72.06
2022-08-19T07:42:06.569Z,71.16
2022-08-19T07:43:06.483Z,71.76
2022-08-19T07:44:06.501Z,72.06
2022-08-19T07:45:05.738Z,69.96
2022-08-19T07:46:05.786Z,67.76
2022-08-19T07:47:06.604Z,72.03
2022-08-19T07:48:06.539Z,72.23
2022-08-19T07:49:05.846Z,71.53
2022-08-19T07:50:06.431Z,71.92
2022-08-19T07:51:06.346Z,69.32
2022-08-19T07:52:06.381Z,67.02
2022-08-19T07:53:05.650Z,69.59
2022-08-19T07:54:06.447Z,68.19
2022-08-19T07:55:06.363Z,69.36
2022-08-19T07:56:06.795Z,69.19
2022-08-19T07:57:06.287Z,68.46
2022-08-19T07:58:06.330Z,69.56
2022-08-19T07:59:06.495Z,69.49
2022-08-19T08:00:05.547Z,68.39
2022-08-19T08:01:06.291Z,66.19
2022-08-19T08:02:05.598Z,67.79
2022-08-19T08:03:05.524Z,69.49
2022-08-19T08:04:06.274Z,66.79
2022-08-19T08:05:05.508Z,70.09
2022-08-19T08:06:06.321Z,69.59
2022-08-19T08:07:05.490Z,67.79
2022-08-19T08:08:05.461Z,66.59
2022-08-19T08:09:05.624Z,67.86
2022-08-19T08:10:05.481Z,70.06
2022-08-19T08:11:07.619Z,69.56
2022-08-19T08:12:33.066Z,69.62
2022-08-19T08:13:09.953Z,69.62
2022-08-19T08:14:05.522Z,69.20
2022-08-19T08:15:08.273Z,68.99
2022-08-19T08:16:05.363Z,68.96
2022-08-19T08:17:11.017Z,68.66
2022-08-19T08:18:05.333Z,67.83
2022-08-19T08:19:14.750Z,67.30
2022-08-19T08:20:07.132Z,66.80
2022-08-19T08:21:05.353Z,65.97
2022-08-19T08:22:05.292Z,65.44
2022-08-19T08:23:05.755Z,64.64
2022-08-19T08:24:05.283Z,63.42
2022-08-19T08:25:05.284Z,62.23
2022-08-19T08:26:06.058Z,62.42
2022-08-19T08:27:11.283Z,62.23
2022-08-19T08:28:06.298Z,61.83
2022-08-19T08:29:12.276Z,62.72
2022-08-19T08:30:06.214Z,63.02
2022-08-19T08:31:09.771Z,63.22
2022-08-19T08:32:14.800Z,63.02
2022-08-19T08:33:06.255Z,62.29
2022-08-19T08:34:05.613Z,61.99
2022-08-19T08:35:05.414Z,61.96
2022-08-19T08:36:05.326Z,61.17
2022-08-19T08:37:05.904Z,60.35
2022-08-19T08:38:06.063Z,59.62
2022-08-19T08:39:05.344Z,59.52
2022-08-19T08:40:05.666Z,59.00
2022-08-19T08:41:05.254Z,58.70
2022-08-19T08:42:09.903Z,57.93
2022-08-19T08:43:06.887Z,59.03
2022-08-19T08:44:05.163Z,57.83
2022-08-19T08:45:05.076Z,58.95
2022-08-19T08:46:05.298Z,59.45
2022-08-19T08:47:05.025Z,58.26
2022-08-19T08:48:05.866Z,58.33
2022-08-19T08:49:06.794Z,58.62
2022-08-19T08:50:05.004Z,57.83
2022-08-19T08:51:04.984Z,56.94
2022-08-19T08:52:05.036Z,58.03
2022-08-19T08:53:04.965Z,58.53
2022-08-19T08:54:05.807Z,57.93
2022-08-19T08:55:10.050Z,56.71
2022-08-19T08:56:04.969Z,56.02
2022-08-19T08:57:04.915Z,57.01
2022-08-19T08:58:05.693Z,55.29
2022-08-19T08:59:04.965Z,55.29
2022-08-19T09:00:04.910Z,55.19
2022-08-19T09:01:04.883Z,54.60
2022-08-19T09:02:04.986Z,54.08
2022-08-19T09:03:04.837Z,54.87
2022-08-19T09:04:05.009Z,55.34
2022-08-19T09:05:04.805Z,55.24
2022-08-19T09:06:04.817Z,53.73
2022-08-19T09:07:18.102Z,54.60
2022-08-19T09:08:06.157Z,54.00
2022-08-19T09:09:11.969Z,51.62
2022-08-19T09:10:06.568Z,52.91
2022-08-19T09:11:05.430Z,53.90
2022-08-19T09:12:04.761Z,52.49
2022-08-19T09:13:09.381Z,54.07
2022-08-19T09:14:06.449Z,53.08
2022-08-19T09:15:04.796Z,52.51
2022-08-19T09:16:04.897Z,53.11
2022-08-19T09:17:04.887Z,54.02
2022-08-19T09:18:06.987Z,50.93
2022-08-19T09:19:06.427Z,49.64
2022-08-19T09:20:04.697Z,51.42
2022-08-19T09:21:04.907Z,50.51
2022-08-19T09:22:05.177Z,49.94
2022-08-19T09:23:04.602Z,51.52
2022-08-19T09:24:04.635Z,53.20
2022-08-19T09:25:04.600Z,49.81
2022-08-19T09:26:05.048Z,49.91
2022-08-19T09:27:18.260Z,52.88
2022-08-19T09:28:15.029Z,49.81
2022-08-19T09:29:05.617Z,49.19
2022-08-19T09:30:04.569Z,50.98
2022-08-19T09:31:04.518Z,50.38
2022-08-19T09:32:05.341Z,49.17
2022-08-19T09:33:06.271Z,49.47
2022-08-19T09:34:05.909Z,52.17
2022-08-19T09:35:04.476Z,50.18
2022-08-19T09:36:04.467Z,50.51
2022-08-19T09:37:04.450Z,51.20
2022-08-19T09:38:04.477Z,50.11
2022-08-19T09:39:04.441Z,51.52
2022-08-19T09:40:06.314Z,50.63
2022-08-19T09:41:04.420Z,50.56
2022-08-19T09:42:04.402Z,52.54
2022-08-19T09:43:09.865Z,50.95
2022-08-19T09:44:05.390Z,51.23
2022-08-19T09:45:05.033Z,51.32
2022-08-19T09:46:04.372Z,50.90
2022-08-19T09:47:04.331Z,49.02
2022-08-19T09:48:04.352Z,49.71
2022-08-19T09:49:06.433Z,49.91
2022-08-19T09:50:04.321Z,51.03
2022-08-19T09:51:04.322Z,51.42
2022-08-19T09:52:05.102Z,50.01
2022-08-19T09:53:04.453Z,49.62
2022-08-19T09:54:04.728Z,51.10
2022-08-19T09:55:07.315Z,49.59
2022-08-19T09:56:04.534Z,49.89
2022-08-19T09:57:04.721Z,50.06
2022-08-19T09:58:04.311Z,49.47
2022-08-19T09:59:04.572Z,50.26
2022-08-19T10:00:05.113Z,48.50
2022-08-19T10:01:04.320Z,48.88
2022-08-19T10:02:11.181Z,49.19
2022-08-19T10:03:05.192Z,49.89
2022-08-19T10:04:08.988Z,50.58
2022-08-19T10:05:05.308Z,49.19
2022-08-19T10:06:04.143Z,49.57
2022-08-19T10:07:04.167Z,48.68
2022-08-19T10:08:04.577Z,48.75
2022-08-19T10:09:05.339Z,48.95
2022-08-19T10:10:04.093Z,49.84
2022-08-19T10:11:28.245Z,49.35
2022-08-19T10:12:06.049Z,47.96
2022-08-19T10:13:04.464Z,48.26
2022-08-19T10:14:04.339Z,49.07
2022-08-19T10:15:04.024Z,47.89
2022-08-19T10:16:04.254Z,47.19
2022-08-19T10:17:04.635Z,49.25
2022-08-19T10:18:05.965Z,46.97
2022-08-19T10:19:03.984Z,45.17
2022-08-19T10:20:04.024Z,44.87
2022-08-19T10:21:03.974Z,46.93
2022-08-19T10:22:03.965Z,46.11
2022-08-19T10:23:03.935Z,46.61
2022-08-19T10:24:03.945Z,45.20
2022-08-19T10:25:03.916Z,44.73
2022-08-19T10:26:03.925Z,44.78
2022-08-19T10:27:04.679Z,47.27
2022-08-19T10:28:03.925Z,48.36
2022-08-19T10:29:03.876Z,47.09
2022-08-19T10:30:03.887Z,47.49
2022-08-19T10:31:03.845Z,49.69
2022-08-19T10:32:03.857Z,48.80
2022-08-19T10:33:08.503Z,48.72
2022-08-19T10:34:04.837Z,49.02
2022-08-19T10:35:06.039Z,49.29
2022-08-19T10:36:03.808Z,48.77
2022-08-19T10:37:03.776Z,49.15
2022-08-19T10:38:04.458Z,48.85
2022-08-19T10:39:03.787Z,47.84
2022-08-19T10:40:03.817Z,48.31
2022-08-19T10:41:03.739Z,48.03
2022-08-19T10:42:03.753Z,48.65
2022-08-19T10:43:03.718Z,47.17
2022-08-19T10:44:04.382Z,47.27
2022-08-19T10:45:04.813Z,48.46
2022-08-19T10:46:03.706Z,47.74
2022-08-19T10:47:03.703Z,46.53
2022-08-19T10:48:04.696Z,45.74
2022-08-19T10:49:03.666Z,46.22
2022-08-19T10:50:03.658Z,45.82
2022-08-19T10:51:03.672Z,45.60
2022-08-19T10:52:03.638Z,45.60
2022-08-19T10:53:03.631Z,43.90
2022-08-19T10:54:06.842Z,46.07
2022-08-19T10:55:05.248Z,43.68
2022-08-19T10:56:03.589Z,42.58
2022-08-19T10:57:03.560Z,43.86
2022-08-19T10:58:03.591Z,41.89
2022-08-19T10:59:03.530Z,41.59
2022-08-19T11:00:03.571Z,44.25
2022-08-19T11:01:03.609Z,43.37
2022-08-19T11:02:03.601Z,42.97
2022-08-19T11:03:03.501Z,43.07
2022-08-19T11:04:03.539Z,43.24
2022-08-19T11:05:05.137Z,43.52
2022-08-19T11:06:04.473Z,42.02
2022-08-19T11:07:03.460Z,42.44
2022-08-19T11:08:03.493Z,43.32
2022-08-19T11:09:04.431Z,44.70
2022-08-19T11:10:03.449Z,43.42
2022-08-19T11:11:03.411Z,44.51
2022-08-19T11:12:04.901Z,43.79
2022-08-19T11:13:03.413Z,42.91
2022-08-19T11:14:03.391Z,43.91
2022-08-19T11:15:03.697Z,43.82
2022-08-19T11:16:07.341Z,42.93
2022-08-19T11:17:03.942Z,41.65
2022-08-19T11:18:03.362Z,43.32
2022-08-19T11:19:03.342Z,42.71
2022-08-19T11:20:03.382Z,42.59
2022-08-19T11:21:03.313Z,41.11
2022-08-19T11:22:04.153Z,41.00
2022-08-19T11:23:03.273Z,42.08
2022-08-19T11:24:03.297Z,41.27
2022-08-19T11:25:03.272Z,41.77
2022-08-19T11:26:03.254Z,41.64
2022-08-19T11:27:03.262Z,40.78
2022-08-19T11:28:03.243Z,41.90
2022-08-19T11:29:03.211Z,43.40
2022-08-19T11:30:03.225Z,41.63
2022-08-19T11:31:03.187Z,42.63
2022-08-19T11:32:03.195Z,41.17
2022-08-19T11:33:03.234Z,42.07
2022-08-19T11:34:03.164Z,43.34
2022-08-19T11:35:03.150Z,42.65
2022-08-19T11:36:03.154Z,41.67
2022-08-19T11:37:03.138Z,42.55
2022-08-19T11:38:05.480Z,42.63
2022-08-19T11:39:04.094Z,41.75
2022-08-19T11:40:03.158Z,43.42
2022-08-19T11:41:03.172Z,41.63
2022-08-19T11:42:03.880Z,41.11
2022-08-19T11:43:03.614Z,39.84
2022-08-19T11:44:03.736Z,41.19
2022-08-19T11:45:03.035Z,39.64
2022-08-19T11:46:03.036Z,40.23
2022-08-19T11:47:08.709Z,39.54
2022-08-19T11:48:04.034Z,39.74
2022-08-19T11:49:02.996Z,40.62
2022-08-19T11:50:02.997Z,39.37
2022-08-19T11:51:03.000Z,40.74
2022-08-19T11:52:02.978Z,41.33
2022-08-19T11:53:02.957Z,40.23
2022-08-19T11:54:02.958Z,39.54
2022-08-19T11:55:03.227Z,41.19
2022-08-19T11:56:02.927Z,40.00
2022-08-19T11:57:02.908Z,38.17
2022-08-19T11:58:02.917Z,40.43
2022-08-19T11:59:02.887Z,39.72
2022-08-19T12:00:03.037Z,41.39
2022-08-19T12:01:02.867Z,39.82
2022-08-19T12:02:02.890Z,39.42
2022-08-19T12:03:02.875Z,37.76
2022-08-19T12:04:02.973Z,37.69
2022-08-19T12:05:02.826Z,38.51
2022-08-19T12:06:03.620Z,42.20
2022-08-19T12:07:02.829Z,40.72
2022-08-19T12:08:02.809Z,40.11
2022-08-19T12:09:02.769Z,42.50
2022-08-19T12:10:02.787Z,42.38
2022-08-19T12:11:03.530Z,40.43
2022-08-19T12:12:03.199Z,41.22
2022-08-19T12:13:02.760Z,41.89
2022-08-19T12:14:02.737Z,40.58
2022-08-19T12:15:02.733Z,40.47
2022-08-19T12:16:03.585Z,39.18
2022-08-19T12:17:03.388Z,41.43
2022-08-19T12:18:02.709Z,38.36
2022-08-19T12:19:02.671Z,38.84
2022-08-19T12:20:02.670Z,37.76
2022-08-19T12:21:02.646Z,38.72
2022-08-19T12:22:03.503Z,39.52
2022-08-19T12:23:02.692Z,39.62
2022-08-19T12:24:02.659Z,38.64
2022-08-19T12:25:02.602Z,37.95
2022-08-19T12:26:02.591Z,38.85
2022-08-19T12:27:03.202Z,37.87
2022-08-19T12:28:03.074Z,38.09
2022-08-19T12:29:02.592Z,40.25
2022-08-19T12:30:02.581Z,39.66
2022-08-19T12:31:02.561Z,39.17
2022-08-19T12:32:03.848Z,39.47
2022-08-19T12:33:02.515Z,39.26
2022-08-19T12:34:02.531Z,38.76
2022-08-19T12:35:02.526Z,39.95
2022-08-19T12:36:02.503Z,39.17
2022-08-19T12:37:03.201Z,39.07
2022-08-19T12:38:02.678Z,40.25
2022-08-19T12:39:02.455Z,40.37
2022-08-19T12:40:02.562Z,40.47
2022-08-19T12:41:02.436Z,40.08
2022-08-19T12:42:02.876Z,40.17
2022-08-19T12:43:02.443Z,40.86
2022-08-19T12:44:02.404Z,38.20
2022-08-19T12:45:02.530Z,40.27
2022-08-19T12:46:02.408Z,39.95
2022-08-19T12:47:02.567Z,38.09
2022-08-19T12:48:02.449Z,37.79
2022-08-19T12:49:05.146Z,38.17
2022-08-19T12:50:06.797Z,36.90
2022-08-19T12:51:02.322Z,37.48
2022-08-19T12:52:02.317Z,37.57